Time;durP1;ratioP1;P1;durP2;ratioP2;P2;SDS_P1;SDS_P2;PMS_P1;PMS_P2;Temp;Humidity;BMP_temperature;BMP_pressure;BME280_temperature;BME280_humidity;BME280_pressure;Samples;Min_cycle;Max_cycle;Signal;HPM_P1;HPM_P2
2023/08/23 00:00:08;;;;;;;14.97;5.50;;;20.60;99.90;;;;;;5049530;28;20461;-50
2023/08/23 00:02:35;;;;;;;7.97;4.10;;;20.60;99.90;;;;;;5078018;28;20426;-57
2023/08/23 00:05:03;;;;;;;6.20;5.10;;;20.60;99.90;;;;;;5063449;28;20490;-57
2023/08/23 00:07:30;;;;;;;8.13;4.33;;;20.60;99.90;;;;;;5056840;28;20508;-52
2023/08/23 00:09:56;;;;;;;5.30;4.80;;;20.50;99.90;;;;;;5077728;28;20431;-55
2023/08/23 00:12:23;;;;;;;7.00;5.97;;;20.50;99.90;;;;;;5070912;28;20467;-57
2023/08/23 00:14:50;;;;;;;8.10;5.17;;;20.40;99.90;;;;;;5070975;28;20483;-55
2023/08/23 00:17:18;;;;;;;5.70;5.10;;;20.40;99.90;;;;;;5059562;28;20475;-47
2023/08/23 00:19:46;;;;;;;8.97;5.30;;;20.40;99.90;;;;;;5080007;28;20431;-57
2023/08/23 00:22:13;;;;;;;6.00;5.37;;;20.30;99.90;;;;;;5070828;28;20523;-58
2023/08/23 00:24:43;;;;;;;6.13;4.97;;;20.30;99.90;;;;;;5063951;28;20447;-52
2023/08/23 00:27:09;;;;;;;7.70;5.60;;;20.30;99.90;;;;;;5063143;28;20463;-57
2023/08/23 00:29:37;;;;;;;7.93;5.57;;;20.30;99.90;;;;;;5058347;28;20513;-50
2023/08/23 00:32:04;;;;;;;11.37;6.33;;;20.20;99.90;;;;;;5080275;28;20419;-49
2023/08/23 00:34:33;;;;;;;7.03;5.67;;;20.30;99.90;;;;;;5074776;28;20439;-57
2023/08/23 00:36:59;;;;;;;8.33;5.60;;;20.30;99.90;;;;;;5056437;28;20456;-54
2023/08/23 00:39:32;;;;;;;9.43;7.10;;;20.30;99.90;;;;;;5061776;28;20420;-52
2023/08/23 00:41:58;;;;;;;12.80;6.47;;;19.80;99.90;;;;;;5074103;28;21201;-58
2023/08/23 00:44:27;;;;;;;8.47;5.80;;;20.30;99.90;;;;;;5070900;28;20483;-57
2023/08/23 00:46:54;;;;;;;6.40;5.30;;;20.30;99.90;;;;;;5072471;28;20498;-50
2023/08/23 00:49:22;;;;;;;10.10;6.33;;;20.20;99.90;;;;;;5064392;28;20485;-56
2023/08/23 00:51:54;;;;;;;6.90;4.80;;;20.20;99.90;;;;;;5056242;28;20439;-54
2023/08/23 00:54:21;;;;;;;5.27;4.67;;;20.20;99.90;;;;;;5072066;28;20451;-48
2023/08/23 00:56:49;;;;;;;9.63;5.33;;;20.20;99.90;;;;;;5065782;28;20435;-57
2023/08/23 00:59:16;;;;;;;7.87;5.70;;;20.20;99.90;;;;;;5056107;28;20530;-57
2023/08/23 01:01:43;;;;;;;13.07;4.77;;;20.20;99.90;;;;;;5079527;28;20451;-57
2023/08/23 01:04:10;;;;;;;7.23;5.30;;;20.10;99.90;;;;;;5061218;28;20458;-48
2023/08/23 01:06:50;;;;;;;5.83;4.40;;;20.10;99.90;;;;;;5071537;28;20494;-56
2023/08/23 01:09:27;;;;;;;7.17;4.93;;;20.10;99.90;;;;;;5073714;28;20443;-46
2023/08/23 01:12:04;;;;;;;7.07;5.17;;;20.10;99.90;;;;;;5073727;28;20438;-56
2023/08/23 01:14:45;;;;;;;9.60;4.83;;;20.00;99.90;;;;;;5058635;28;20925;-48
2023/08/23 01:17:13;;;;;;;6.53;4.33;;;20.00;99.90;;;;;;5060021;28;20889;-54
2023/08/23 01:19:44;;;;;;;7.07;4.43;;;20.00;99.90;;;;;;5077844;28;20459;-53
2023/08/23 01:22:13;;;;;;;5.30;4.70;;;20.00;99.90;;;;;;5063903;28;20538;-54
2023/08/23 01:24:42;;;;;;;11.97;5.90;;;20.00;99.90;;;;;;5055661;28;20562;-57
2023/08/23 01:27:09;;;;;;;8.00;5.20;;;20.00;99.90;;;;;;5071924;28;20467;-48
2023/08/23 01:29:36;;;;;;;6.77;4.47;;;19.90;99.90;;;;;;5071719;28;20451;-56
2023/08/23 01:32:14;;;;;;;6.90;4.57;;;19.90;99.90;;;;;;5056972;28;21006;-57
2023/08/23 01:34:44;;;;;;;7.50;5.00;;;19.90;99.90;;;;;;5055664;28;20506;-55
2023/08/23 01:37:14;;;;;;;10.40;7.00;;;19.90;99.90;;;;;;5078714;28;20443;-49
2023/08/23 01:39:42;;;;;;;6.10;5.20;;;19.80;99.90;;;;;;5072642;28;20416;-51
2023/08/23 01:42:10;;;;;;;7.17;5.20;;;19.80;99.90;;;;;;5073249;28;20528;-50
2023/08/23 01:44:37;;;;;;;8.47;5.57;;;19.80;99.90;;;;;;5068754;28;20950;-58
2023/08/23 01:47:04;;;;;;;7.60;5.07;;;19.80;99.90;;;;;;5074939;28;20467;-57
2023/08/23 01:49:32;;;;;;;8.43;5.30;;;19.80;99.90;;;;;;5055857;28;20525;-58
2023/08/23 01:51:59;;;;;;;7.83;5.47;;;19.70;99.90;;;;;;5069891;28;20427;-52
2023/08/23 01:54:26;;;;;;;10.20;5.83;;;19.70;99.90;;;;;;5062106;28;20483;-57
2023/08/23 01:56:57;;;;;;;6.90;4.80;;;19.70;99.90;;;;;;5069152;28;20459;-50
2023/08/23 01:59:24;;;;;;;8.17;5.33;;;19.70;99.90;;;;;;5078717;28;20424;-52
2023/08/23 02:01:51;;;;;;;11.10;5.20;;;19.70;99.90;;;;;;5071052;28;20470;-56
2023/08/23 02:04:19;;;;;;;12.63;5.70;;;19.70;99.90;;;;;;5054863;28;20451;-57
2023/08/23 02:06:46;;;;;;;7.63;5.53;;;19.70;99.90;;;;;;5060963;28;20424;-51
2023/08/23 02:09:13;;;;;;;7.37;5.20;;;19.70;99.90;;;;;;5075264;28;20432;-55
2023/08/23 02:11:40;;;;;;;6.70;4.93;;;19.70;99.90;;;;;;5062643;28;20494;-57
2023/08/23 02:14:08;;;;;;;10.67;5.37;;;19.70;99.90;;;;;;5055504;28;20511;-57
2023/08/23 02:16:35;;;;;;;6.53;5.10;;;19.70;99.90;;;;;;5060466;28;20475;-56
2023/08/23 02:19:02;;;;;;;8.07;5.80;;;19.60;99.90;;;;;;5059684;28;20959;-58
2023/08/23 02:21:29;;;;;;;11.47;6.40;;;19.60;99.90;;;;;;5055399;28;20467;-57
2023/08/23 02:23:56;;;;;;;8.73;5.40;;;19.60;99.90;;;;;;5060652;28;20436;-57
2023/08/23 02:26:23;;;;;;;6.90;5.70;;;19.70;99.90;;;;;;5069766;28;20479;-57
2023/08/23 02:28:50;;;;;;;6.80;5.43;;;19.60;99.90;;;;;;5058834;28;20519;-56
2023/08/23 02:31:18;;;;;;;8.87;5.90;;;19.60;99.90;;;;;;5067681;28;20966;-56
2023/08/23 02:33:45;;;;;;;6.93;5.87;;;19.60;99.90;;;;;;5060191;28;20457;-58
2023/08/23 02:36:12;;;;;;;6.37;5.70;;;19.60;99.90;;;;;;5061798;28;20455;-56
2023/08/23 02:38:41;;;;;;;6.50;5.43;;;19.60;99.90;;;;;;5078155;28;20439;-52
2023/08/23 02:41:08;;;;;;;10.77;6.40;;;19.60;99.90;;;;;;5070480;28;20467;-57
2023/08/23 02:43:36;;;;;;;7.13;5.90;;;19.50;99.90;;;;;;5054419;28;20807;-58
2023/08/23 02:46:03;;;;;;;6.20;5.60;;;19.50;99.90;;;;;;5054191;28;20466;-55
2023/08/23 02:48:37;;;;;;;8.97;5.97;;;19.50;99.90;;;;;;5069870;28;20471;-52
2023/08/23 02:51:04;;;;;;;7.67;6.63;;;19.50;99.90;;;;;;5074640;28;20463;-58
2023/08/23 02:53:31;;;;;;;6.87;5.63;;;19.50;99.90;;;;;;5056053;28;20981;-56
2023/08/23 02:55:57;;;;;;;9.70;5.87;;;19.50;99.90;;;;;;5058648;28;20965;-54
2023/08/23 02:58:24;;;;;;;6.60;5.97;;;19.50;99.90;;;;;;5059848;28;20513;-56
2023/08/23 03:00:51;;;;;;;10.07;6.33;;;19.50;99.90;;;;;;5059894;28;20526;-56
2023/08/23 03:03:18;;;;;;;8.80;6.80;;;19.40;99.90;;;;;;5063824;28;20475;-53
2023/08/23 03:06:01;;;;;;;12.30;7.10;;;19.40;99.90;;;;;;5064317;28;20427;-49
2023/08/23 03:08:32;;;;;;;9.00;5.73;;;19.30;99.90;;;;;;5070005;28;20509;-55
2023/08/23 03:11:03;;;;;;;9.83;6.10;;;19.30;99.90;;;;;;5071511;28;20804;-57
2023/08/23 03:13:33;;;;;;;7.07;6.33;;;19.30;99.90;;;;;;5057147;28;20449;-56
2023/08/23 03:16:05;;;;;;;10.23;7.20;;;19.30;99.90;;;;;;5069842;28;20416;-50
2023/08/23 03:18:32;;;;;;;9.10;6.80;;;19.30;99.90;;;;;;5072048;28;20467;-58
2023/08/23 03:21:02;;;;;;;18.00;7.50;;;19.30;99.90;;;;;;5061286;28;20475;-54
2023/08/23 03:23:29;;;;;;;8.13;5.77;;;19.30;99.90;;;;;;5077024;28;20407;-55
2023/08/23 03:25:59;;;;;;;7.10;5.97;;;19.30;99.90;;;;;;5063954;28;20542;-57
2023/08/23 03:28:26;;;;;;;12.00;5.93;;;19.30;99.90;;;;;;5070836;28;20486;-50
2023/08/23 03:30:53;;;;;;;8.00;6.00;;;19.20;99.90;;;;;;5080431;28;20430;-57
2023/08/23 03:33:20;;;;;;;10.10;7.30;;;19.20;99.90;;;;;;5070806;28;20463;-52
2023/08/23 03:36:00;;;;;;;10.87;7.80;;;19.20;99.90;;;;;;5072729;28;20435;-49
2023/08/23 03:38:28;;;;;;;9.13;5.83;;;19.20;99.90;;;;;;5068412;28;20436;-53
2023/08/23 03:40:58;;;;;;;6.67;5.63;;;19.20;99.90;;;;;;5075227;28;21049;-57
2023/08/23 03:43:25;;;;;;;7.57;6.27;;;19.20;99.90;;;;;;5066418;28;20727;-52
2023/08/23 03:45:52;;;;;;;11.83;6.60;;;19.10;99.90;;;;;;5065949;28;20498;-57
2023/08/23 03:48:19;;;;;;;8.63;6.77;;;19.10;99.90;;;;;;5053510;28;20523;-50
2023/08/23 03:50:46;;;;;;;10.53;6.77;;;19.00;99.90;;;;;;5050123;28;20491;-54
2023/08/23 03:53:13;;;;;;;7.97;6.03;;;19.00;99.90;;;;;;5043441;28;20459;-57
2023/08/23 03:55:41;;;;;;;8.40;6.37;;;18.90;99.90;;;;;;5058645;28;20424;-52
2023/08/23 03:58:08;;;;;;;8.50;6.23;;;18.90;99.90;;;;;;5051556;28;20471;-52
2023/08/23 04:00:36;;;;;;;9.43;7.50;;;18.90;99.90;;;;;;5058197;28;20432;-55
2023/08/23 04:03:03;;;;;;;11.40;6.73;;;18.90;99.90;;;;;;5045540;28;20537;-50
2023/08/23 04:05:30;;;;;;;11.30;6.90;;;18.90;99.90;;;;;;5055029;28;20436;-57
2023/08/23 04:07:56;;;;;;;15.13;7.27;;;18.90;99.90;;;;;;5040528;28;20528;-50
2023/08/23 04:10:23;;;;;;;8.67;7.07;;;18.90;99.90;;;;;;5057628;28;20468;-56
2023/08/23 04:12:52;;;;;;;6.90;6.20;;;18.90;99.90;;;;;;5054366;28;20516;-51
2023/08/23 04:15:18;;;;;;;9.53;7.03;;;18.90;99.90;;;;;;5077333;28;20448;-55
2023/08/23 04:17:45;;;;;;;9.07;7.17;;;18.90;99.90;;;;;;5060202;28;20428;-54
2023/08/23 04:20:15;;;;;;;10.10;7.57;;;18.90;99.90;;;;;;5066344;28;20447;-47
2023/08/23 04:22:42;;;;;;;9.43;8.50;;;18.90;99.90;;;;;;5080489;28;20443;-48
2023/08/23 04:25:10;;;;;;;10.37;7.90;;;18.90;99.90;;;;;;5058030;28;20487;-58
2023/08/23 04:27:37;;;;;;;12.10;7.30;;;18.90;99.90;;;;;;5056484;28;20436;-53
2023/08/23 04:30:06;;;;;;;17.97;7.40;;;18.90;99.90;;;;;;5056745;28;20432;-55
2023/08/23 04:32:33;;;;;;;9.27;6.87;;;18.80;99.90;;;;;;5063342;28;20489;-52
2023/08/23 04:35:00;;;;;;;9.70;7.80;;;18.80;99.90;;;;;;5072847;28;20777;-56
2023/08/23 04:37:27;;;;;;;9.43;6.93;;;18.80;99.90;;;;;;5056045;28;20467;-55
2023/08/23 04:39:54;;;;;;;7.83;7.00;;;18.80;99.90;;;;;;5067448;28;20551;-55
2023/08/23 04:42:23;;;;;;;11.20;7.60;;;18.80;99.90;;;;;;5057392;28;20455;-52
2023/08/23 04:44:52;;;;;;;8.67;7.77;;;18.80;99.90;;;;;;5074084;28;20491;-49
2023/08/23 04:47:20;;;;;;;10.70;7.70;;;18.80;99.90;;;;;;5073562;28;20498;-56
2023/08/23 04:49:47;;;;;;;9.30;6.97;;;18.90;99.90;;;;;;5056371;28;20573;-55
2023/08/23 04:52:14;;;;;;;10.03;7.13;;;18.90;99.90;;;;;;5070604;28;20474;-55
2023/08/23 04:54:42;;;;;;;13.93;7.37;;;18.90;99.90;;;;;;5076497;28;20423;-47
2023/08/23 04:57:09;;;;;;;11.30;7.07;;;18.90;99.90;;;;;;5075435;28;20465;-55
2023/08/23 04:59:36;;;;;;;8.67;7.07;;;18.90;99.90;;;;;;5069010;28;20786;-56
2023/08/23 05:02:03;;;;;;;9.40;6.70;;;18.90;99.90;;;;;;5056018;28;20435;-57
2023/08/23 05:04:32;;;;;;;8.47;7.17;;;18.90;99.90;;;;;;5069686;28;20462;-57
2023/08/23 05:06:58;;;;;;;13.00;6.00;;;18.90;99.90;;;;;;5070116;28;20442;-48
2023/08/23 05:09:26;;;;;;;13.23;6.40;;;18.90;99.90;;;;;;5064297;28;20483;-53
2023/08/23 05:11:53;;;;;;;7.83;6.30;;;18.90;99.90;;;;;;5071646;28;20462;-56
2023/08/23 05:14:20;;;;;;;7.63;6.90;;;18.90;99.90;;;;;;5058641;28;20534;-53
2023/08/23 05:16:47;;;;;;;13.10;7.17;;;18.90;99.90;;;;;;5067730;28;20536;-52
2023/08/23 05:19:15;;;;;;;8.03;6.30;;;18.90;99.90;;;;;;5055844;28;20424;-56
2023/08/23 05:21:43;;;;;;;7.27;6.57;;;18.90;99.90;;;;;;5077283;28;20474;-52
2023/08/23 05:24:10;;;;;;;10.93;7.20;;;18.90;99.90;;;;;;5065611;28;20872;-54
2023/08/23 05:26:37;;;;;;;11.10;7.90;;;18.90;99.90;;;;;;5055581;28;20896;-55
2023/08/23 05:29:04;;;;;;;11.33;6.17;;;19.00;99.90;;;;;;5055332;28;20578;-55
2023/08/23 05:31:31;;;;;;;8.70;6.73;;;19.10;99.90;;;;;;5055414;28;20455;-56
2023/08/23 05:33:58;;;;;;;8.90;6.97;;;19.10;99.90;;;;;;5055387;28;20868;-54
2023/08/23 05:36:25;;;;;;;9.07;7.97;;;19.10;99.90;;;;;;5072489;28;20471;-57
2023/08/23 05:38:55;;;;;;;9.00;7.03;;;19.10;99.90;;;;;;5071769;28;20443;-55
2023/08/23 05:41:22;;;;;;;9.83;7.00;;;19.10;99.90;;;;;;5068872;28;20443;-50
2023/08/23 05:43:50;;;;;;;8.90;7.50;;;19.10;99.90;;;;;;5065730;28;20431;-51
2023/08/23 05:46:17;;;;;;;7.13;6.27;;;19.20;99.90;;;;;;5068355;28;20486;-57
2023/08/23 05:48:44;;;;;;;9.13;6.83;;;19.20;99.90;;;;;;5059144;28;20467;-53
2023/08/23 05:51:11;;;;;;;8.67;6.90;;;19.30;99.90;;;;;;5063635;28;20450;-57
2023/08/23 05:53:38;;;;;;;14.10;6.77;;;19.30;99.90;;;;;;5067284;28;20496;-54
2023/08/23 05:56:09;;;;;;;11.03;5.77;;;19.30;99.90;;;;;;5058729;28;20482;-49
2023/08/23 05:58:36;;;;;;;11.43;6.50;;;19.40;99.90;;;;;;5073173;28;20470;-56
2023/08/23 06:01:03;;;;;;;9.00;5.93;;;19.50;99.90;;;;;;5059662;28;20847;-52
2023/08/23 06:03:29;;;;;;;10.63;7.10;;;19.60;99.90;;;;;;5062916;28;20458;-50
2023/08/23 06:05:57;;;;;;;10.43;7.70;;;19.70;99.90;;;;;;5068413;28;20509;-51
2023/08/23 06:08:26;;;;;;;10.47;6.03;;;19.80;99.90;;;;;;5076767;28;20444;-52
2023/08/23 06:10:53;;;;;;;9.50;5.93;;;19.90;99.90;;;;;;5072638;28;20467;-57
2023/08/23 06:13:22;;;;;;;5.97;5.37;;;20.00;99.90;;;;;;5058161;28;20511;-50
2023/08/23 06:15:49;;;;;;;12.90;7.00;;;20.00;99.90;;;;;;5070483;28;20467;-59
2023/08/23 06:18:16;;;;;;;7.17;6.00;;;20.20;99.90;;;;;;5054384;28;20490;-58
2023/08/23 06:20:45;;;;;;;5.53;4.93;;;20.30;99.90;;;;;;5054070;28;20543;-59
2023/08/23 06:23:12;;;;;;;11.07;7.60;;;20.30;99.90;;;;;;5077085;28;20435;-51
2023/08/23 06:25:39;;;;;;;7.10;5.73;;;20.40;99.90;;;;;;5071562;28;20447;-62
2023/08/23 06:28:06;;;;;;;9.50;6.63;;;20.50;99.90;;;;;;5065611;28;20467;-55
2023/08/23 06:30:36;;;;;;;8.07;5.73;;;20.50;99.90;;;;;;5070825;28;20448;-62
2023/08/23 06:33:05;;;;;;;7.00;5.80;;;20.60;99.90;;;;;;5067739;28;20478;-62
2023/08/23 06:35:32;;;;;;;7.17;5.37;;;20.60;99.90;;;;;;5045814;28;20482;-62
2023/08/23 06:37:59;;;;;;;5.93;5.07;;;20.70;99.90;;;;;;5061272;28;20482;-63
2023/08/23 06:40:26;;;;;;;10.37;5.53;;;20.70;99.90;;;;;;5075494;28;20427;-56
2023/08/23 06:42:53;;;;;;;11.33;5.73;;;20.90;99.90;;;;;;5071874;28;20439;-60
2023/08/23 06:45:20;;;;;;;8.03;6.03;;;20.90;99.90;;;;;;5052754;28;20452;-61
2023/08/23 06:47:48;;;;;;;5.57;5.03;;;21.00;99.90;;;;;;5056560;28;20494;-62
2023/08/23 06:50:15;;;;;;;6.83;5.90;;;21.10;99.90;;;;;;5054134;28;20491;-61
2023/08/23 06:52:45;;;;;;;5.03;4.43;;;21.10;99.90;;;;;;5057047;28;20483;-53
2023/08/23 06:55:12;;;;;;;6.87;5.30;;;21.10;99.90;;;;;;5077884;28;20419;-55
2023/08/23 06:57:39;;;;;;;8.13;4.80;;;21.10;99.90;;;;;;5057645;28;20439;-60
2023/08/23 07:00:07;;;;;;;7.00;4.93;;;21.20;99.90;;;;;;5055555;28;20474;-61
2023/08/23 07:02:34;;;;;;;6.50;4.90;;;21.30;99.90;;;;;;5047109;28;20467;-60
2023/08/23 07:05:03;;;;;;;8.93;4.50;;;21.30;99.90;;;;;;5038211;28;20936;-60
2023/08/23 07:07:30;;;;;;;5.70;4.87;;;21.40;99.90;;;;;;5038207;28;20472;-61
2023/08/23 07:09:58;;;;;;;5.00;4.50;;;21.40;99.90;;;;;;5057965;28;20471;-56
2023/08/23 07:12:26;;;;;;;5.73;4.90;;;21.50;99.90;;;;;;5060848;28;20490;-52
2023/08/23 07:14:52;;;;;;;5.87;4.73;;;21.50;99.90;;;;;;5063792;28;20454;-62
2023/08/23 07:17:19;;;;;;;7.03;5.27;;;21.60;99.90;;;;;;5057992;28;20443;-62
2023/08/23 07:19:48;;;;;;;13.83;5.53;;;21.70;99.90;;;;;;5081194;28;20428;-54
2023/08/23 07:22:17;;;;;;;5.27;4.50;;;21.70;99.90;;;;;;5081636;28;20447;-52
2023/08/23 07:24:44;;;;;;;9.57;4.40;;;21.80;99.90;;;;;;5068113;28;20773;-61
2023/08/23 07:27:11;;;;;;;12.77;6.63;;;21.90;99.90;;;;;;5057975;28;20493;-62
2023/08/23 07:29:38;;;;;;;6.60;4.63;;;22.00;99.90;;;;;;5057610;28;21033;-62
2023/08/23 07:32:05;;;;;;;5.03;4.37;;;22.00;99.90;;;;;;5076387;28;20433;-60
2023/08/23 07:34:33;;;;;;;4.60;4.10;;;22.10;99.90;;;;;;5063854;28;20887;-61
2023/08/23 07:37:04;;;;;;;4.83;3.77;;;22.20;99.90;;;;;;5062591;28;20507;-53
2023/08/23 07:39:33;;;;;;;5.27;4.00;;;22.30;99.90;;;;;;5078471;28;20449;-60
2023/08/23 07:42:01;;;;;;;3.53;3.23;;;22.40;99.90;;;;;;5068442;28;20458;-61
2023/08/23 07:44:27;;;;;;;4.10;3.20;;;22.40;99.90;;;;;;5077552;28;20447;-50
2023/08/23 07:46:54;;;;;;;6.87;3.43;;;22.50;99.90;;;;;;5059883;28;20554;-61
2023/08/23 07:49:21;;;;;;;5.60;3.80;;;22.60;99.90;;;;;;5057275;28;20479;-61
2023/08/23 07:51:49;;;;;;;3.43;2.87;;;22.70;99.90;;;;;;5064997;28;20478;-52
2023/08/23 07:54:16;;;;;;;4.37;3.50;;;22.70;99.90;;;;;;5081205;28;20416;-52
2023/08/23 07:56:44;;;;;;;3.20;2.60;;;22.80;99.90;;;;;;5059732;28;20440;-60
2023/08/23 07:59:11;;;;;;;7.73;3.50;;;23.00;99.90;;;;;;5057426;28;20540;-62
2023/08/23 08:01:38;;;;;;;4.07;3.20;;;23.40;99.90;;;;;;5057409;28;20554;-62
2023/08/23 08:04:05;;;;;;;4.23;2.80;;;24.40;99.90;;;;;;5057285;28;20546;-60
2023/08/23 08:06:32;;;;;;;4.10;3.03;;;25.90;99.90;;;;;;5057253;28;20530;-61
2023/08/23 08:08:59;;;;;;;4.43;2.53;;;27.40;99.90;;;;;;5068121;28;20528;-62
2023/08/23 08:11:25;;;;;;;3.50;2.70;;;29.00;99.90;;;;;;5059548;28;20462;-61
2023/08/23 08:13:54;;;;;;;3.43;2.43;;;30.10;99.90;;;;;;5057007;28;20531;-59
2023/08/23 08:16:20;;;;;;;4.33;2.60;;;31.40;96.20;;;;;;5057164;28;20515;-61
2023/08/23 08:18:47;;;;;;;3.00;2.20;;;32.40;92.30;;;;;;5057079;28;20526;-61
2023/08/23 08:21:14;;;;;;;3.00;2.80;;;33.30;84.70;;;;;;5056582;28;20479;-61
2023/08/23 08:23:42;;;;;;;3.60;2.40;;;34.10;78.80;;;;;;5058453;28;20468;-61
2023/08/23 08:26:11;;;;;;;3.77;2.90;;;34.60;76.20;;;;;;5036946;28;20502;-61
2023/08/23 08:28:42;;;;;;;6.53;3.63;;;35.50;70.20;;;;;;5036562;28;20472;-61
2023/08/23 08:31:11;;;;;;;3.37;2.90;;;36.20;66.00;;;;;;5036645;28;20464;-61
2023/08/23 08:33:40;;;;;;;3.57;3.27;;;36.10;63.90;;;;;;5052614;28;20432;-50
2023/08/23 08:36:07;;;;;;;4.00;2.90;;;35.70;63.00;;;;;;5057166;28;20463;-61
2023/08/23 08:38:34;;;;;;;3.60;2.97;;;34.80;65.80;;;;;;5062165;28;20430;-54
2023/08/23 08:41:01;;;;;;;4.00;3.30;;;34.70;65.60;;;;;;5072194;28;20721;-61
2023/08/23 08:43:28;;;;;;;3.60;3.30;;;34.60;66.10;;;;;;5057449;28;20513;-61
2023/08/23 08:45:57;;;;;;;4.53;3.63;;;34.60;66.30;;;;;;5075296;28;20431;-55
2023/08/23 08:48:25;;;;;;;3.60;3.23;;;34.40;65.30;;;;;;5080078;28;20467;-54
2023/08/23 08:50:54;;;;;;;3.63;2.90;;;34.20;65.80;;;;;;5056512;28;20578;-61
2023/08/23 08:53:22;;;;;;;3.17;2.53;;;34.00;66.50;;;;;;5056095;28;20503;-59
2023/08/23 08:55:51;;;;;;;3.73;3.10;;;34.00;66.40;;;;;;5064392;28;20478;-59
2023/08/23 08:58:20;;;;;;;6.27;2.63;;;33.30;66.60;;;;;;5072795;28;20503;-61
2023/08/23 09:00:49;;;;;;;3.13;2.37;;;33.10;67.90;;;;;;5076477;28;20427;-50
2023/08/23 09:03:17;;;;;;;4.67;2.73;;;33.20;67.90;;;;;;5069150;28;20733;-62
2023/08/23 09:05:47;;;;;;;5.40;2.70;;;33.00;67.70;;;;;;5056006;28;20507;-61
2023/08/23 09:08:14;;;;;;;3.40;2.63;;;33.20;67.30;;;;;;5056112;28;20443;-60
2023/08/23 09:10:42;;;;;;;3.17;2.87;;;33.50;66.70;;;;;;5055509;28;20582;-61
2023/08/23 09:13:09;;;;;;;10.33;2.77;;;33.30;67.10;;;;;;5055811;28;20486;-61
2023/08/23 09:15:37;;;;;;;3.87;2.87;;;33.60;67.90;;;;;;5056552;28;20560;-53
2023/08/23 09:18:05;;;;;;;3.77;2.67;;;33.80;66.10;;;;;;5079516;28;20435;-52
2023/08/23 09:20:32;;;;;;;4.10;2.70;;;34.00;64.60;;;;;;5059506;28;20482;-59
2023/08/23 09:23:01;;;;;;;5.10;3.17;;;34.20;64.70;;;;;;5074157;28;20424;-61
2023/08/23 09:25:28;;;;;;;4.10;2.50;;;33.70;63.80;;;;;;5055815;28;20443;-62
2023/08/23 09:27:55;;;;;;;2.07;1.87;;;33.40;65.50;;;;;;5055567;28;20625;-62
2023/08/23 09:30:23;;;;;;;4.80;2.80;;;32.80;66.70;;;;;;5055725;28;20578;-62
2023/08/23 09:32:50;;;;;;;3.13;2.83;;;32.40;68.30;;;;;;5078210;28;20486;-51
2023/08/23 09:35:18;;;;;;;4.00;2.63;;;32.00;70.40;;;;;;5061282;28;20447;-62
2023/08/23 09:37:46;;;;;;;5.67;2.90;;;32.00;69.10;;;;;;5055223;28;20904;-61
2023/08/23 09:40:19;;;;;;;3.90;3.00;;;31.60;70.90;;;;;;5064360;28;20458;-54
2023/08/23 09:42:49;;;;;;;7.47;5.77;;;31.80;71.10;;;;;;5064661;28;20466;-50
2023/08/23 09:45:18;;;;;;;6.33;4.30;;;32.00;69.90;;;;;;5077879;28;20412;-59
2023/08/23 09:47:51;;;;;;;2.33;2.07;;;32.00;69.30;;;;;;5055416;28;20453;-61
2023/08/23 09:50:19;;;;;;;3.50;2.50;;;32.10;70.20;;;;;;5055064;28;20589;-61
2023/08/23 09:52:54;;;;;;;3.43;3.13;;;32.20;70.50;;;;;;5066870;28;20432;-51
2023/08/23 09:55:24;;;;;;;5.50;3.30;;;32.00;70.20;;;;;;5073978;28;20462;-61
2023/08/23 09:57:53;;;;;;;2.63;2.30;;;31.80;71.00;;;;;;5055517;28;20460;-58
2023/08/23 10:00:21;;;;;;;2.70;2.23;;;31.50;72.10;;;;;;5057081;28;20954;-47
2023/08/23 10:02:48;;;;;;;5.10;3.07;;;31.00;69.90;;;;;;5070756;28;20561;-64
2023/08/23 10:05:17;;;;;;;5.47;2.57;;;30.70;70.60;;;;;;5055301;28;20450;-63
2023/08/23 10:07:44;;;;;;;4.13;2.70;;;30.60;71.50;;;;;;5076879;28;20459;-55
2023/08/23 10:10:12;;;;;;;3.80;2.70;;;30.40;70.50;;;;;;5078613;28;20459;-59
2023/08/23 10:12:43;;;;;;;2.73;2.47;;;30.20;74.40;;;;;;5055959;28;20566;-61
2023/08/23 10:15:12;;;;;;;3.80;2.80;;;29.90;74.80;;;;;;5074578;28;20455;-63
2023/08/23 10:17:49;;;;;;;5.93;2.87;;;30.10;74.60;;;;;;5068040;28;20444;-52
2023/08/23 10:20:16;;;;;;;3.17;2.73;;;30.30;73.20;;;;;;5065168;28;20423;-58
2023/08/23 10:22:43;;;;;;;3.47;2.47;;;30.40;73.00;;;;;;5069323;28;20493;-59
2023/08/23 10:25:17;;;;;;;5.60;2.20;;;30.60;73.80;;;;;;5059309;28;20451;-61
2023/08/23 10:27:48;;;;;;;4.23;2.83;;;31.00;71.60;;;;;;5059884;28;20587;-54
2023/08/23 10:30:24;;;;;;;2.80;2.50;;;30.30;73.20;;;;;;5077887;28;20447;-62
2023/08/23 10:32:51;;;;;;;5.43;2.50;;;29.90;74.80;;;;;;5074060;28;20462;-60
2023/08/23 10:35:33;;;;;;;5.23;2.70;;;29.60;75.40;;;;;;5065289;28;20498;-61
2023/08/23 10:38:01;;;;;;;3.73;2.33;;;29.70;76.40;;;;;;5072450;28;20455;-57
2023/08/23 10:40:31;;;;;;;4.27;2.23;;;29.80;76.70;;;;;;5069533;28;20524;-50
2023/08/23 10:43:10;;;;;;;6.00;2.67;;;29.80;76.00;;;;;;5064548;28;20428;-53
2023/08/23 10:45:51;;;;;;;4.07;2.57;;;29.70;75.70;;;;;;5078019;28;20477;-52
2023/08/23 10:48:20;;;;;;;3.87;2.47;;;29.80;75.20;;;;;;5070844;28;20486;-60
2023/08/23 10:50:48;;;;;;;3.33;2.10;;;29.60;73.30;;;;;;5063272;28;20482;-55
2023/08/23 10:53:16;;;;;;;5.47;2.40;;;29.40;73.80;;;;;;5071853;28;20435;-51
2023/08/23 10:55:43;;;;;;;3.17;2.53;;;29.30;76.40;;;;;;5075201;28;20858;-62
2023/08/23 10:58:13;;;;;;;2.60;1.77;;;29.60;77.30;;;;;;5057269;28;20447;-61
2023/08/23 11:00:42;;;;;;;1.70;1.50;;;29.70;73.30;;;;;;5047076;28;20502;-61
2023/08/23 11:03:09;;;;;;;3.00;1.73;;;29.90;75.50;;;;;;5045614;28;20472;-62
2023/08/23 11:05:36;;;;;;;3.23;1.77;;;30.20;72.20;;;;;;5060157;28;20907;-61
2023/08/23 11:08:04;;;;;;;2.13;1.60;;;30.20;72.10;;;;;;5062990;28;20469;-54
2023/08/23 11:10:31;;;;;;;2.37;2.17;;;30.00;73.20;;;;;;5065207;28;20515;-62
2023/08/23 11:12:58;;;;;;;2.70;2.50;;;30.00;72.80;;;;;;5054100;28;20905;-60
2023/08/23 11:15:26;;;;;;;1.97;1.73;;;30.10;73.60;;;;;;5054369;28;20459;-61
2023/08/23 11:17:53;;;;;;;3.53;2.43;;;29.80;72.80;;;;;;5071627;28;20463;-55
2023/08/23 11:20:20;;;;;;;3.30;1.80;;;29.70;72.60;;;;;;5065192;28;20447;-63
2023/08/23 11:22:47;;;;;;;3.47;1.83;;;29.60;71.50;;;;;;5070191;28;20467;-61
2023/08/23 11:25:14;;;;;;;4.90;1.70;;;29.30;70.70;;;;;;5058038;28;20475;-63
2023/08/23 11:27:41;;;;;;;1.80;1.57;;;29.10;73.00;;;;;;5060808;28;20503;-52
2023/08/23 11:30:09;;;;;;;4.13;2.10;;;29.10;72.00;;;;;;5057176;28;20493;-63
2023/08/23 11:32:38;;;;;;;2.87;2.03;;;29.20;71.80;;;;;;5077093;28;20494;-55
2023/08/23 11:35:07;;;;;;;8.53;2.03;;;29.10;72.90;;;;;;5057849;28;20493;-60
2023/08/23 11:37:37;;;;;;;3.97;2.10;;;28.90;74.70;;;;;;5065383;28;20459;-61
2023/08/23 11:40:07;;;;;;;2.17;1.80;;;28.80;76.20;;;;;;5076041;28;20424;-53
2023/08/23 11:42:35;;;;;;;2.73;1.70;;;28.90;75.20;;;;;;5057630;28;21046;-61
2023/08/23 11:45:04;;;;;;;3.03;1.67;;;28.90;76.90;;;;;;5053708;28;20753;-63
2023/08/23 11:47:31;;;;;;;1.67;1.40;;;28.90;76.20;;;;;;5075840;28;20518;-62
2023/08/23 11:49:59;;;;;;;1.87;1.53;;;28.90;72.60;;;;;;5057951;28;20541;-62
2023/08/23 11:52:29;;;;;;;2.77;1.87;;;29.00;72.90;;;;;;5071377;28;20474;-51
2023/08/23 11:54:57;;;;;;;3.60;2.03;;;28.90;73.80;;;;;;5070910;28;20550;-63
2023/08/23 11:57:24;;;;;;;4.33;2.27;;;28.80;73.70;;;;;;5057761;28;20451;-64
2023/08/23 11:59:55;;;;;;;4.07;2.07;;;28.70;75.10;;;;;;5069317;28;20623;-56
2023/08/23 12:02:22;;;;;;;3.90;1.83;;;28.60;74.70;;;;;;5071461;28;20473;-63
2023/08/23 12:04:56;;;;;;;3.53;2.33;;;28.50;74.20;;;;;;5059799;28;20454;-55
2023/08/23 12:07:24;;;;;;;2.27;1.40;;;28.40;74.50;;;;;;5058707;28;20425;-61
2023/08/23 12:09:51;;;;;;;2.67;1.90;;;28.50;74.40;;;;;;5051421;28;20458;-53
2023/08/23 12:12:22;;;;;;;4.00;1.70;;;28.50;73.60;;;;;;5060797;28;20427;-56
2023/08/23 12:14:49;;;;;;;1.50;1.40;;;28.50;73.80;;;;;;5048728;28;20472;-63
2023/08/23 12:17:16;;;;;;;2.37;1.77;;;28.60;73.20;;;;;;5037288;28;20870;-61
2023/08/23 12:19:43;;;;;;;2.47;1.90;;;28.40;73.20;;;;;;5041966;28;20432;-54
2023/08/23 12:22:11;;;;;;;3.70;2.00;;;28.20;75.00;;;;;;5057814;28;20468;-63
2023/08/23 12:24:40;;;;;;;3.40;2.07;;;28.00;75.40;;;;;;5050242;28;20472;-64
2023/08/23 12:27:07;;;;;;;4.27;1.80;;;27.90;75.30;;;;;;5054074;28;20479;-61
2023/08/23 12:29:34;;;;;;;5.40;1.80;;;28.00;75.50;;;;;;5046953;28;20492;-51
2023/08/23 12:32:02;;;;;;;3.57;2.70;;;28.10;74.60;;;;;;5059320;28;20468;-63
2023/08/23 12:34:29;;;;;;;3.73;2.00;;;28.10;73.40;;;;;;5044556;28;20518;-61
2023/08/23 12:36:57;;;;;;;4.20;2.50;;;28.10;74.20;;;;;;5059998;28;20452;-54
2023/08/23 12:39:24;;;;;;;2.47;1.80;;;28.00;74.70;;;;;;5060285;28;20596;-56
2023/08/23 12:41:52;;;;;;;2.27;1.90;;;28.00;74.30;;;;;;5057697;28;20454;-63
2023/08/23 12:44:19;;;;;;;2.40;1.90;;;28.00;75.10;;;;;;5064351;28;20476;-55
2023/08/23 12:46:46;;;;;;;3.37;2.40;;;28.10;75.80;;;;;;5080069;28;20411;-62
2023/08/23 12:49:13;;;;;;;3.50;2.30;;;28.20;75.80;;;;;;5062383;28;20513;-65